createdAt,value
2022-12-05T00:01:15.379Z,76.53
2022-12-05T00:03:42.400Z,80.70
2022-12-05T00:06:09.340Z,88.60
2022-12-05T00:08:36.197Z,83.28
2022-12-05T00:11:02.920Z,90.53
2022-12-05T00:13:29.676Z,83.63
2022-12-05T00:15:56.395Z,83.05
2022-12-05T00:18:23.036Z,84.22
2022-12-05T00:20:49.866Z,81.35
2022-12-05T00:23:16.563Z,83.32
2022-12-05T00:25:43.265Z,79.78
2022-12-05T00:28:09.975Z,85.25
2022-12-05T00:30:40.433Z,94.50
2022-12-05T00:33:07.110Z,84.30
2022-12-05T00:35:34.409Z,92.93
2022-12-05T00:38:01.164Z,96.60
2022-12-05T00:40:27.889Z,90.55
2022-12-05T00:42:54.568Z,100.88
2022-12-05T00:45:21.448Z,90.45
2022-12-05T00:47:48.119Z,92.38
2022-12-05T00:50:14.828Z,104.22
2022-12-05T00:52:41.478Z,97.85
2022-12-05T00:55:08.843Z,96.22
2022-12-05T00:57:35.537Z,98.72
2022-12-05T01:00:02.664Z,88.90
2022-12-05T01:02:30.217Z,91.82
2022-12-05T01:04:56.874Z,100.50
2022-12-05T01:07:23.849Z,86.10
2022-12-05T01:09:50.601Z,86.05
2022-12-05T01:12:17.475Z,97.82
2022-12-05T01:14:44.307Z,91.90
2022-12-05T01:17:11.048Z,84.40
2022-12-05T01:19:37.871Z,91.28
2022-12-05T01:22:05.672Z,81.60
2022-12-05T01:24:32.492Z,79.18
2022-12-05T01:26:59.325Z,72.28
2022-12-05T01:29:26.494Z,65.70
2022-12-05T01:31:54.235Z,72.90
2022-12-05T01:34:21.230Z,69.75
2022-12-05T01:36:48.703Z,66.55
2022-12-05T01:39:16.658Z,59.25
2022-12-05T01:41:47.233Z,55.63
2022-12-05T01:44:13.836Z,59.25
2022-12-05T01:46:46.187Z,59.83
2022-12-05T01:49:18.210Z,54.40
2022-12-05T01:51:51.162Z,56.05
2022-12-05T01:54:19.544Z,56.30
2022-12-05T01:56:50.794Z,53.72
2022-12-05T01:59:20.596Z,61.53
2022-12-05T02:01:47.361Z,61.65
2022-12-05T02:04:14.672Z,69.10
2022-12-05T02:06:41.465Z,71.88
2022-12-05T02:09:08.166Z,72.10
2022-12-05T02:11:41.809Z,71.75
2022-12-05T02:14:23.021Z,75.30
2022-12-05T02:17:06.810Z,71.80
2022-12-05T02:19:55.378Z,70.38
2022-12-05T02:22:46.132Z,64.53
2022-12-05T02:25:21.815Z,63.17
2022-12-05T02:28:14.371Z,66.53
2022-12-05T02:31:00.012Z,60.83
2022-12-05T02:33:38.571Z,58.92
2022-12-05T02:36:21.648Z,60.65
2022-12-05T02:39:02.943Z,64.25
2022-12-05T02:41:37.827Z,60.00
2022-12-05T02:44:14.454Z,61.67
2022-12-05T02:46:43.010Z,65.68
2022-12-05T02:49:12.939Z,59.83
2022-12-05T02:51:44.434Z,57.65
2022-12-05T02:54:16.728Z,62.08
2022-12-05T02:56:46.154Z,55.10
2022-12-05T02:59:16.066Z,56.33
2022-12-05T03:01:47.267Z,53.33
2022-12-05T03:04:15.225Z,56.50
2022-12-05T03:06:53.906Z,55.30
2022-12-05T03:09:27.609Z,58.97
2022-12-05T03:12:00.225Z,54.03
2022-12-05T03:14:33.061Z,56.50
2022-12-05T03:17:03.073Z,58.28
2022-12-05T03:19:55.710Z,59.25
2022-12-05T03:22:32.176Z,60.28
2022-12-05T03:25:00.545Z,56.88
2022-12-05T03:27:53.250Z,58.75
2022-12-05T03:30:22.562Z,56.90
2022-12-05T03:33:01.442Z,59.63
2022-12-05T03:35:41.908Z,52.53
2022-12-05T03:38:16.049Z,56.40
2022-12-05T03:40:51.669Z,52.17
2022-12-05T03:43:36.606Z,52.38
2022-12-05T03:46:13.020Z,58.10
2022-12-05T03:48:46.923Z,60.88
2022-12-05T03:51:17.378Z,57.38
2022-12-05T03:54:02.216Z,60.35
2022-12-05T03:56:51.314Z,60.60
2022-12-05T03:59:27.191Z,62.38
2022-12-05T04:01:56.121Z,60.40
2022-12-05T04:04:29.648Z,57.72
2022-12-05T04:07:00.731Z,59.42
2022-12-05T04:09:33.378Z,63.92
2022-12-05T04:12:05.414Z,64.57
2022-12-05T04:17:06.285Z,67.78
2022-12-05T04:20:06.762Z,59.30
2022-12-05T04:22:34.882Z,63.53
2022-12-05T04:25:22.774Z,66.47
2022-12-05T04:28:21.433Z,61.85
2022-12-05T04:31:06.463Z,64.43
2022-12-05T04:36:39.449Z,70.45
2022-12-05T04:39:18.271Z,65.43
2022-12-05T04:41:51.706Z,67.20
2022-12-05T04:44:23.407Z,63.88
2022-12-05T04:46:51.222Z,59.67
2022-12-05T04:49:22.603Z,70.25
2022-12-05T04:51:53.067Z,58.50
2022-12-05T04:54:31.974Z,64.00
2022-12-05T04:57:18.931Z,69.10
2022-12-05T04:59:46.043Z,65.43
2022-12-05T05:02:17.469Z,69.43
2022-12-05T05:04:51.068Z,70.22
2022-12-05T05:07:18.820Z,67.72
2022-12-05T05:09:45.729Z,59.00
2022-12-05T05:12:18.557Z,74.25
2022-12-05T05:14:45.828Z,59.60
2022-12-05T05:17:12.659Z,59.55
2022-12-05T05:19:39.306Z,61.67
2022-12-05T05:22:05.945Z,69.75
2022-12-05T05:24:32.866Z,62.15
2022-12-05T05:26:59.729Z,58.80
2022-12-05T05:29:26.771Z,67.43
2022-12-05T05:31:53.865Z,68.80
2022-12-05T05:34:20.569Z,65.80
2022-12-05T05:36:52.688Z,64.85
2022-12-05T05:41:46.712Z,65.18
2022-12-05T05:44:13.440Z,64.03
2022-12-05T05:46:40.200Z,66.30
2022-12-05T05:49:06.963Z,63.97
2022-12-05T05:51:34.295Z,67.50
2022-12-05T05:54:01.392Z,64.28
2022-12-05T05:56:28.968Z,65.05
2022-12-05T05:58:58.557Z,68.30
2022-12-05T06:01:25.497Z,66.55
2022-12-05T06:03:52.748Z,60.25
2022-12-05T06:06:21.117Z,68.47
2022-12-05T06:08:48.307Z,62.05
2022-12-05T06:11:25.967Z,67.72
2022-12-05T06:16:25.050Z,62.40
2022-12-05T06:18:52.245Z,64.95
2022-12-05T06:21:19.517Z,67.28
2022-12-05T06:23:46.293Z,60.17
2022-12-05T06:26:15.951Z,62.30
2022-12-05T06:28:42.798Z,63.55
2022-12-05T06:31:11.232Z,68.85
2022-12-05T06:33:38.425Z,64.88
2022-12-05T06:36:11.354Z,63.67
2022-12-05T06:38:42.073Z,69.38
2022-12-05T06:41:14.006Z,62.97
2022-12-05T06:43:41.102Z,63.05
2022-12-05T06:46:09.963Z,62.72
2022-12-05T06:48:36.718Z,67.53
2022-12-05T06:51:04.240Z,71.20
2022-12-05T06:53:31.034Z,69.97
2022-12-05T06:55:59.448Z,64.57
2022-12-05T06:58:26.580Z,63.55
2022-12-05T07:01:12.394Z,65.55
2022-12-05T07:03:39.508Z,70.22
2022-12-05T07:06:07.698Z,68.60
2022-12-05T07:08:35.129Z,72.15
2022-12-05T07:11:03.303Z,77.05
2022-12-05T07:13:30.129Z,66.22
2022-12-05T07:15:58.919Z,77.07
2022-12-05T07:18:26.638Z,72.90
2022-12-05T07:21:16.856Z,67.45
2022-12-05T07:23:45.529Z,63.35
2022-12-05T07:26:15.905Z,71.90
2022-12-05T07:28:42.869Z,80.38
2022-12-05T07:31:12.637Z,71.82
2022-12-05T07:33:39.776Z,75.50
2022-12-05T07:36:10.978Z,73.32
2022-12-05T07:38:38.154Z,78.43
2022-12-05T07:41:12.980Z,76.50
2022-12-05T07:43:40.925Z,80.20
2022-12-05T07:46:11.215Z,81.78
2022-12-05T07:48:38.081Z,83.53
2022-12-05T07:51:06.350Z,78.97
2022-12-05T07:53:34.399Z,79.82
2022-12-05T07:56:06.813Z,77.07
2022-12-05T07:58:34.554Z,78.75
2022-12-05T08:01:12.491Z,79.47
2022-12-05T08:03:39.766Z,82.93
2022-12-05T08:06:12.388Z,82.68
2022-12-05T08:08:39.440Z,75.03
2022-12-05T08:11:21.465Z,82.63
2022-12-05T08:13:48.960Z,78.38
2022-12-05T08:16:21.310Z,76.13
2022-12-05T08:18:48.407Z,82.20
2022-12-05T08:21:18.563Z,78.20
2022-12-05T08:23:46.369Z,76.95
2022-12-05T08:26:25.737Z,83.18
2022-12-05T08:29:07.779Z,81.90
2022-12-05T08:31:37.205Z,83.97
2022-12-05T08:34:03.843Z,78.85
2022-12-05T08:36:31.571Z,77.15
2022-12-05T08:39:00.241Z,80.40
2022-12-05T08:41:29.942Z,73.22
2022-12-05T08:43:58.492Z,77.95
2022-12-05T08:46:26.006Z,77.03
2022-12-05T08:48:52.765Z,72.70
2022-12-05T08:51:19.594Z,60.25
2022-12-05T08:53:46.595Z,62.10
2022-12-05T08:56:14.067Z,62.10
2022-12-05T08:58:41.255Z,58.47
2022-12-05T09:01:22.094Z,58.90
2022-12-05T09:03:48.986Z,51.15
2022-12-05T09:06:21.154Z,52.60
2022-12-05T09:08:49.097Z,56.47
2022-12-05T09:11:19.454Z,61.20
2022-12-05T09:13:47.652Z,59.10
2022-12-05T09:16:17.258Z,59.00
2022-12-05T09:18:44.883Z,58.83
2022-12-05T09:21:14.276Z,64.90
2022-12-05T09:23:41.119Z,70.78
2022-12-05T09:26:11.854Z,70.80
2022-12-05T09:28:39.411Z,70.97
2022-12-05T09:31:09.251Z,66.57
2022-12-05T09:33:37.294Z,75.22
2022-12-05T09:36:10.827Z,72.93
2022-12-05T09:38:37.516Z,69.35
2022-12-05T09:41:13.193Z,75.25
2022-12-05T09:44:03.493Z,74.18
2022-12-05T09:46:42.688Z,77.10
2022-12-05T09:49:12.120Z,72.75
2022-12-05T09:51:44.357Z,69.35
2022-12-05T09:56:40.700Z,58.33
2022-12-05T09:59:16.825Z,62.10
2022-12-05T10:02:03.967Z,63.58
2022-12-05T10:04:46.371Z,58.55
2022-12-05T10:07:18.928Z,57.80
2022-12-05T10:10:20.128Z,63.38
2022-12-05T10:12:56.370Z,72.65
2022-12-05T10:15:32.138Z,69.18
2022-12-05T10:18:10.591Z,72.70
2022-12-05T10:20:46.653Z,76.22
2022-12-05T10:23:48.945Z,71.60
2022-12-05T10:26:11.543Z,69.28
2022-12-05T10:28:59.057Z,71.47
2022-12-05T10:31:37.554Z,72.45
2022-12-05T10:34:37.237Z,71.88
2022-12-05T10:37:30.883Z,72.90
2022-12-05T10:39:58.397Z,65.47
2022-12-05T10:42:35.969Z,72.47
2022-12-05T10:45:09.038Z,66.30
2022-12-05T10:47:35.976Z,68.50
2022-12-05T10:50:17.490Z,69.38
2022-12-05T10:52:44.808Z,66.45
2022-12-05T10:55:16.156Z,76.70
2022-12-05T10:57:42.876Z,64.60
2022-12-05T11:00:14.917Z,66.30
2022-12-05T11:02:42.969Z,63.53
2022-12-05T11:05:10.129Z,65.00
2022-12-05T11:07:43.039Z,60.53
2022-12-05T11:10:27.236Z,61.92
2022-12-05T11:12:57.484Z,61.28
2022-12-05T11:15:27.939Z,59.25
2022-12-05T11:17:58.505Z,65.60
2022-12-05T11:20:25.230Z,63.88
2022-12-05T11:22:54.088Z,65.68
2022-12-05T11:25:29.737Z,67.13
2022-12-05T11:28:20.849Z,57.08
2022-12-05T11:31:00.642Z,57.75
2022-12-05T11:33:30.262Z,63.10
2022-12-05T11:36:04.338Z,60.92
2022-12-05T11:38:32.783Z,57.67
2022-12-05T11:41:25.539Z,60.85
2022-12-05T11:44:31.916Z,60.47
2022-12-05T11:47:13.840Z,62.78
2022-12-05T11:49:58.821Z,58.13
2022-12-05T11:53:08.715Z,57.75
2022-12-05T11:58:26.329Z,56.97
2022-12-05T12:01:13.647Z,55.22
2022-12-05T12:04:04.910Z,61.22
2022-12-05T12:06:43.821Z,57.80
2022-12-05T12:09:28.705Z,57.88
2022-12-05T12:12:22.436Z,55.03
2022-12-05T12:14:55.370Z,53.47
2022-12-05T12:17:29.543Z,55.67
2022-12-05T12:20:17.319Z,55.92
2022-12-05T12:23:12.920Z,55.97
2022-12-05T12:26:16.430Z,56.88
2022-12-05T12:31:13.115Z,56.40
2022-12-05T12:33:49.935Z,58.90
2022-12-05T12:36:18.848Z,53.50
2022-12-05T12:39:10.789Z,56.72
2022-12-05T12:41:55.618Z,57.13
2022-12-05T12:44:41.086Z,54.30
2022-12-05T12:47:39.886Z,53.42
2022-12-05T12:50:45.041Z,50.50
2022-12-05T12:53:50.098Z,50.08
2022-12-05T12:56:46.225Z,48.45
2022-12-05T12:59:38.510Z,57.70
2022-12-05T13:02:31.083Z,50.92
2022-12-05T13:05:08.125Z,52.80
2022-12-05T13:07:45.154Z,54.17
2022-12-05T13:10:30.682Z,54.75
2022-12-05T13:12:59.525Z,50.13
2022-12-05T13:15:58.228Z,52.50
2022-12-05T13:18:26.174Z,43.67
2022-12-05T13:20:56.418Z,49.90
2022-12-05T13:23:26.949Z,54.53
2022-12-05T13:25:56.303Z,44.88
2022-12-05T13:28:26.343Z,47.13
2022-12-05T13:31:02.525Z,51.13
2022-12-05T13:33:50.454Z,52.28
2022-12-05T13:36:40.680Z,50.40
2022-12-05T13:39:31.911Z,49.47
2022-12-05T13:42:17.826Z,50.75
2022-12-05T13:44:47.798Z,50.30
2022-12-05T13:47:32.464Z,50.08
2022-12-05T13:50:07.345Z,49.05
2022-12-05T13:53:05.064Z,44.58
2022-12-05T13:55:36.480Z,55.78
2022-12-05T13:58:32.619Z,54.55
2022-12-05T14:01:27.539Z,47.03
2022-12-05T14:04:02.867Z,46.65
2022-12-05T14:06:38.652Z,48.20
2022-12-05T14:09:29.899Z,45.97
2022-12-05T14:12:14.738Z,42.67
2022-12-05T14:14:56.939Z,42.53
2022-12-05T14:17:30.044Z,40.25
2022-12-05T14:19:59.994Z,42.15
2022-12-05T14:22:49.055Z,38.97
2022-12-05T14:25:47.841Z,42.17
2022-12-05T14:28:41.202Z,41.20
2022-12-05T14:31:30.499Z,42.83
2022-12-05T14:34:28.099Z,38.65
2022-12-05T14:36:57.828Z,42.05
2022-12-05T14:39:33.862Z,44.08
2022-12-05T14:42:03.019Z,39.40
2022-12-05T14:44:32.281Z,37.53
2022-12-05T14:47:06.618Z,42.47
2022-12-05T14:49:54.487Z,38.20
2022-12-05T14:52:24.745Z,40.90
2022-12-05T14:54:54.250Z,37.70
2022-12-05T14:57:21.757Z,40.95
2022-12-05T14:59:54.998Z,37.13
2022-12-05T15:02:29.107Z,36.63
2022-12-05T15:05:02.352Z,37.10
2022-12-05T15:07:37.931Z,35.72
2022-12-05T15:10:19.032Z,34.53
2022-12-05T15:13:05.999Z,36.60
2022-12-05T15:15:42.731Z,34.08
2022-12-05T15:18:17.416Z,35.05
2022-12-05T15:20:50.446Z,37.83
2022-12-05T15:23:47.749Z,36.20
2022-12-05T15:29:23.442Z,36.22
2022-12-05T15:31:53.170Z,35.40
2022-12-05T15:34:47.420Z,35.45
2022-12-05T15:37:19.430Z,31.67
2022-12-05T15:39:51.460Z,34.33
2022-12-05T15:44:45.801Z,29.83
2022-12-05T15:47:32.822Z,33.08
2022-12-05T15:49:59.867Z,30.08
2022-12-05T15:52:56.516Z,33.83
2022-12-05T15:55:39.829Z,30.33
2022-12-05T15:58:15.393Z,29.92
2022-12-05T16:00:48.065Z,33.60
2022-12-05T16:03:27.615Z,30.80
2022-12-05T16:06:01.354Z,31.55
2022-12-05T16:08:40.605Z,30.25
2022-12-05T16:11:12.002Z,27.15
2022-12-05T16:13:44.067Z,31.27
2022-12-05T16:16:20.107Z,27.25
2022-12-05T16:19:04.475Z,26.52
2022-12-05T16:21:41.381Z,25.65
2022-12-05T16:24:19.476Z,26.52
2022-12-05T16:27:01.339Z,25.00
2022-12-05T16:29:34.150Z,19.75
2022-12-05T16:32:03.707Z,23.33
2022-12-05T16:34:34.114Z,21.42
2022-12-05T16:37:01.322Z,19.27
2022-12-05T16:39:29.026Z,19.83
2022-12-05T16:42:02.274Z,20.75
2022-12-05T16:44:28.944Z,20.83
2022-12-05T16:46:56.645Z,17.63
2022-12-05T16:49:42.632Z,16.85
2022-12-05T16:52:14.664Z,19.95
2022-12-05T16:54:45.933Z,18.33
2022-12-05T16:57:15.290Z,20.60
2022-12-05T16:59:43.694Z,18.13
2022-12-05T17:02:15.422Z,21.10
2022-12-05T17:04:42.471Z,17.55
2022-12-05T17:07:09.850Z,18.30
2022-12-05T17:09:36.579Z,17.42
2022-12-05T17:12:20.376Z,16.95
2022-12-05T17:14:47.343Z,18.95
2022-12-05T17:17:18.997Z,19.77
2022-12-05T17:19:45.920Z,17.00
2022-12-05T17:22:15.428Z,13.20
2022-12-05T17:24:42.116Z,17.08
2022-12-05T17:27:11.533Z,16.80
2022-12-05T17:29:38.491Z,16.30
2022-12-05T17:32:05.594Z,15.88
2022-12-05T17:34:32.427Z,17.33
2022-12-05T17:37:00.233Z,15.90
2022-12-05T17:39:28.762Z,15.30
2022-12-05T17:41:56.365Z,15.43
2022-12-05T17:44:23.304Z,17.55
2022-12-05T17:46:50.367Z,15.35
2022-12-05T17:49:18.037Z,16.30
2022-12-05T17:52:13.341Z,17.35
2022-12-05T17:54:32.120Z,16.52
2022-12-05T17:56:58.798Z,15.75
2022-12-05T17:59:25.521Z,19.10
2022-12-05T18:01:52.230Z,18.08
2022-12-05T18:04:23.043Z,18.45
2022-12-05T18:06:50.562Z,16.13
2022-12-05T18:09:17.310Z,17.77
2022-12-05T18:11:44.575Z,17.83
2022-12-05T18:14:11.560Z,20.10
2022-12-05T18:16:38.432Z,17.25
2022-12-05T18:19:05.585Z,19.23
2022-12-05T18:21:32.418Z,17.65
2022-12-05T18:23:59.967Z,17.75
2022-12-05T18:26:26.847Z,16.10
2022-12-05T18:28:56.670Z,16.13
2022-12-05T18:31:23.663Z,17.08
2022-12-05T18:33:53.514Z,17.38
2022-12-05T18:36:21.246Z,17.38
2022-12-05T18:38:56.185Z,18.48
2022-12-05T18:41:27.410Z,15.48
2022-12-05T18:43:56.914Z,19.55
2022-12-05T18:46:24.351Z,17.88
2022-12-05T18:48:51.312Z,16.08
2022-12-05T18:51:23.142Z,14.93
2022-12-05T18:53:52.844Z,17.20
2022-12-05T18:56:26.746Z,16.90
2022-12-05T18:58:59.487Z,18.55
2022-12-05T19:01:27.838Z,15.20
2022-12-05T19:03:57.049Z,15.48
2022-12-05T19:06:27.271Z,17.33
2022-12-05T19:08:55.701Z,15.15
2022-12-05T19:11:23.790Z,17.75
2022-12-05T19:13:58.042Z,17.08
2022-12-05T19:16:25.615Z,17.48
2022-12-05T19:18:57.699Z,16.17
2022-12-05T19:23:52.182Z,16.50
2022-12-05T19:26:19.235Z,15.60
2022-12-05T19:28:45.937Z,14.95
2022-12-05T19:31:16.183Z,15.57
2022-12-05T19:33:45.013Z,15.65
2022-12-05T19:36:14.619Z,15.75
2022-12-05T19:38:42.893Z,17.27
2022-12-05T19:41:12.386Z,17.13
2022-12-05T19:43:39.615Z,13.73
2022-12-05T19:46:12.561Z,17.90
2022-12-05T19:48:39.543Z,15.43
2022-12-05T19:51:06.851Z,15.82
2022-12-05T19:53:37.896Z,17.08
2022-12-05T19:56:13.566Z,14.80
2022-12-05T19:58:40.677Z,15.48
2022-12-05T20:01:17.112Z,14.80
2022-12-05T20:03:49.092Z,14.77
2022-12-05T20:06:16.813Z,16.05
2022-12-05T20:08:44.023Z,17.63
2022-12-05T20:11:13.608Z,15.60
2022-12-05T20:13:49.012Z,16.38
2022-12-05T20:16:18.687Z,18.17
2022-12-05T20:18:46.255Z,15.63
2022-12-05T20:21:15.408Z,16.17
2022-12-05T20:23:42.616Z,16.63
2022-12-05T20:26:12.369Z,14.95
2022-12-05T20:28:39.914Z,18.27
2022-12-05T20:31:08.329Z,16.67
2022-12-05T20:33:36.121Z,16.95
2022-12-05T20:36:06.102Z,17.67
2022-12-05T20:38:32.814Z,16.85
2022-12-05T20:41:05.413Z,16.92
2022-12-05T20:43:32.828Z,18.52
2022-12-05T20:46:13.159Z,18.40
2022-12-05T20:48:40.282Z,20.02
2022-12-05T20:51:09.185Z,18.33
2022-12-05T20:53:38.221Z,17.63
2022-12-05T20:56:16.855Z,19.58
2022-12-05T20:58:45.438Z,16.05
2022-12-05T21:01:13.591Z,18.75
2022-12-05T21:03:42.905Z,17.30
2022-12-05T21:06:21.924Z,16.35
2022-12-05T21:08:49.887Z,15.52
2022-12-05T21:11:16.759Z,15.73
2022-12-05T21:13:43.586Z,15.80
2022-12-05T21:16:16.768Z,15.73
2022-12-05T21:18:44.759Z,15.82
2022-12-05T21:21:25.405Z,17.58
2022-12-05T21:23:55.496Z,17.35
2022-12-05T21:26:23.887Z,19.90
2022-12-05T21:28:50.719Z,21.45
2022-12-05T21:31:30.775Z,20.98
2022-12-05T21:34:00.506Z,19.10
2022-12-05T21:36:30.045Z,19.30
2022-12-05T21:38:56.886Z,19.17
2022-12-05T21:41:25.132Z,20.10
2022-12-05T21:43:55.484Z,17.98
2022-12-05T21:46:26.294Z,19.98
2022-12-05T21:48:54.140Z,19.98
2022-12-05T21:51:21.722Z,20.02
2022-12-05T21:53:48.958Z,21.30
2022-12-05T21:56:18.308Z,21.52
2022-12-05T21:58:46.113Z,18.38
2022-12-05T22:01:17.861Z,21.90
2022-12-05T22:03:45.255Z,22.10
2022-12-05T22:06:14.685Z,18.02
2022-12-05T22:08:41.863Z,20.25
2022-12-05T22:11:08.691Z,20.65
2022-12-05T22:13:35.963Z,19.25
2022-12-05T22:16:03.744Z,19.15
2022-12-05T22:18:31.213Z,18.58
2022-12-05T22:21:05.338Z,18.02
2022-12-05T22:23:33.106Z,18.55
2022-12-05T22:26:11.060Z,19.08
2022-12-05T22:28:38.376Z,18.65
2022-12-05T22:31:08.112Z,19.67
2022-12-05T22:33:38.194Z,18.52
2022-12-05T22:36:07.409Z,19.17
2022-12-05T22:38:36.559Z,18.27
2022-12-05T22:41:08.734Z,15.98
2022-12-05T22:43:37.450Z,18.33
2022-12-05T22:46:09.544Z,16.48
2022-12-05T22:51:03.849Z,13.43
2022-12-05T22:53:31.377Z,14.93
2022-12-05T22:56:10.358Z,17.60
2022-12-05T22:58:38.387Z,15.98
2022-12-05T23:04:24.142Z,14.82
2022-12-05T23:06:50.921Z,20.23
2022-12-05T23:09:18.146Z,18.60
2022-12-05T23:11:44.877Z,15.50
2022-12-05T23:14:11.643Z,15.00
2022-12-05T23:16:38.632Z,16.42
2022-12-05T23:19:05.911Z,16.40
2022-12-05T23:21:38.073Z,16.67
2022-12-05T23:24:07.869Z,17.45
2022-12-05T23:26:39.477Z,16.35
2022-12-05T23:29:06.721Z,18.17
2022-12-05T23:31:33.623Z,19.35
2022-12-05T23:34:03.597Z,21.30
2022-12-05T23:36:32.560Z,17.77
2022-12-05T23:38:59.252Z,20.05
2022-12-05T23:41:26.344Z,17.23
2022-12-05T23:43:54.040Z,19.25
2022-12-05T23:46:23.583Z,19.67
2022-12-05T23:48:51.404Z,19.77
2022-12-05T23:51:26.555Z,20.80
2022-12-05T23:53:58.793Z,18.52
2022-12-05T23:56:28.933Z,17.33
2022-12-05T23:58:55.969Z,18.95
